Time;durP1;ratioP1;P1;durP2;ratioP2;P2;SDS_P1;SDS_P2;PMS_P1;PMS_P2;Temp;Humidity;BMP_temperature;BMP_pressure;BME280_temperature;BME280_humidity;BME280_pressure;Samples;Min_cycle;Max_cycle;Signal;HPM_P1;HPM_P2
2023/06/25 00:01:02;;;;;;;0.00;0.00;;;;;;;17.30;63.09;100577.41;5023473;28;20025;-74
2023/06/25 00:03:28;;;;;;;0.00;0.00;;;;;;;17.27;63.33;100576.91;5003350;28;20026;-72
2023/06/25 00:05:54;;;;;;;0.00;0.00;;;;;;;17.25;63.07;100583.88;5016940;28;20569;-72
2023/06/25 00:08:19;;;;;;;0.00;0.00;;;;;;;17.21;63.47;100567.06;5009183;28;20049;-71
2023/06/25 00:10:44;;;;;;;0.00;0.00;;;;;;;17.20;63.46;100570.97;5019329;28;20457;-71
2023/06/25 00:13:10;;;;;;;0.00;0.00;;;;;;;17.13;63.63;100569.72;5000574;28;20037;-71
2023/06/25 00:15:35;;;;;;;0.00;0.00;;;;;;;17.15;64.18;100561.97;5030981;28;20041;-70
2023/06/25 00:18:01;;;;;;;0.00;0.00;;;;;;;17.09;64.14;100555.72;5025027;28;20033;-73
2023/06/25 00:20:26;;;;;;;0.00;0.00;;;;;;;17.08;64.26;100552.16;5003633;28;20395;-72
2023/06/25 00:22:52;;;;;;;0.00;0.00;;;;;;;17.04;64.82;100550.28;5023178;28;20083;-71
2023/06/25 00:25:18;;;;;;;0.00;0.00;;;;;;;17.04;65.36;100544.75;5033978;28;20029;-69
2023/06/25 00:27:47;;;;;;;0.00;0.00;;;;;;;17.01;64.88;100539.84;5016990;28;20065;-70
2023/06/25 00:30:16;;;;;;;0.00;0.00;;;;;;;16.96;65.40;100531.69;5012213;28;20103;-71
2023/06/25 00:32:42;;;;;;;0.00;0.00;;;;;;;16.94;65.62;100534.75;5013451;28;20068;-71
2023/06/25 00:35:12;;;;;;;0.00;0.00;;;;;;;16.93;65.55;100544.16;4991969;28;20052;-70
2023/06/25 00:37:41;;;;;;;0.00;0.00;;;;;;;16.91;66.04;100530.66;5031163;28;20033;-74
2023/06/25 00:40:08;;;;;;;0.00;0.00;;;;;;;16.88;66.17;100534.03;5027876;28;20045;-70
2023/06/25 00:42:44;;;;;;;0.00;0.00;;;;;;;16.84;66.70;100527.44;5033175;28;20029;-70
2023/06/25 00:45:11;;;;;;;0.00;0.00;;;;;;;16.81;66.83;100525.28;5031164;28;20025;-70
2023/06/25 00:47:38;;;;;;;0.00;0.00;;;;;;;16.81;67.05;100517.00;5021518;28;20083;-71
2023/06/25 00:50:04;;;;;;;0.00;0.00;;;;;;;16.78;67.90;100523.16;5019582;28;21393;-72
2023/06/25 00:52:30;;;;;;;0.00;0.00;;;;;;;16.74;67.72;100513.84;5006062;28;20068;-70
2023/06/25 00:54:55;;;;;;;0.00;0.00;;;;;;;16.75;67.64;100515.47;5016317;28;20029;-71
2023/06/25 00:57:21;;;;;;;0.00;0.00;;;;;;;16.71;68.04;100497.88;5019967;28;20038;-70
2023/06/25 00:59:50;;;;;;;0.00;0.00;;;;;;;16.67;68.08;100502.38;5011488;28;20116;-71
2023/06/25 01:02:32;;;;;;;0.00;0.00;;;;;;;16.69;68.40;100500.09;5008692;28;20045;-69
2023/06/25 01:05:07;;;;;;;0.00;0.00;;;;;;;16.68;68.61;100504.81;4998075;28;20125;-71
2023/06/25 01:07:36;;;;;;;0.00;0.00;;;;;;;16.65;68.66;100510.97;4997896;28;20631;-70
2023/06/25 01:10:03;;;;;;;0.00;0.00;;;;;;;16.64;69.29;100500.22;5013163;28;20037;-70
2023/06/25 01:12:29;;;;;;;0.00;0.00;;;;;;;16.62;69.07;100491.41;5024191;28;20029;-71
2023/06/25 01:14:57;;;;;;;0.00;0.00;;;;;;;16.60;68.91;100497.25;5002000;28;20036;-70
2023/06/25 01:17:26;;;;;;;0.00;0.00;;;;;;;16.47;69.20;100476.78;5005643;28;20183;-70
2023/06/25 01:19:51;;;;;;;0.00;0.00;;;;;;;16.55;69.70;100489.88;5016622;28;20388;-70
2023/06/25 01:22:24;;;;;;;0.00;0.00;;;;;;;16.51;69.70;100480.56;5004257;28;20034;-70
2023/06/25 01:24:49;;;;;;;0.00;0.00;;;;;;;16.52;69.58;100487.72;5004537;28;20045;-70
2023/06/25 01:27:15;;;;;;;0.00;0.00;;;;;;;16.51;70.14;100477.00;4996603;28;20321;-70
2023/06/25 01:29:40;;;;;;;0.00;0.00;;;;;;;16.52;70.23;100473.13;5050463;28;20868;-70
2023/06/25 01:32:07;;;;;;;0.00;0.00;;;;;;;16.52;70.40;100482.22;5005554;28;20086;-70
2023/06/25 01:34:32;;;;;;;0.00;0.00;;;;;;;16.48;70.74;100469.31;5013821;28;20038;-70
2023/06/25 01:36:57;;;;;;;0.00;0.00;;;;;;;16.42;70.39;100467.78;5009406;28;20100;-70
2023/06/25 01:39:23;;;;;;;0.00;0.00;;;;;;;16.37;70.91;100460.44;4997786;28;20376;-70
2023/06/25 01:41:50;;;;;;;0.00;0.00;;;;;;;16.35;71.13;100462.66;5035011;28;20112;-70
2023/06/25 01:44:24;;;;;;;0.00;0.00;;;;;;;16.33;70.94;100457.44;4995546;28;20488;-70
2023/06/25 01:46:52;;;;;;;0.00;0.00;;;;;;;16.32;71.17;100452.22;5006780;28;20048;-70
2023/06/25 01:49:17;;;;;;;0.00;0.00;;;;;;;16.34;71.90;100463.78;4972220;28;20034;-71
2023/06/25 01:51:43;;;;;;;0.00;0.00;;;;;;;16.31;71.54;100450.59;4988139;28;20040;-70
2023/06/25 01:54:08;;;;;;;0.00;0.00;;;;;;;16.28;71.89;100456.72;5053973;28;20182;-69
2023/06/25 01:56:34;;;;;;;0.00;0.00;;;;;;;16.27;71.32;100455.09;5002706;28;20112;-70
2023/06/25 01:58:59;;;;;;;0.00;0.00;;;;;;;16.26;72.03;100450.69;5022695;28;20033;-70
2023/06/25 02:01:24;;;;;;;0.00;0.00;;;;;;;16.23;71.76;100444.66;5016084;28;20044;-70
2023/06/25 02:03:50;;;;;;;0.00;0.00;;;;;;;16.22;72.28;100443.03;4998890;28;20041;-70
2023/06/25 02:06:15;;;;;;;0.00;0.00;;;;;;;16.23;72.16;100444.66;4998859;28;20041;-70
2023/06/25 02:08:41;;;;;;;0.00;0.00;;;;;;;16.21;72.35;100441.38;5004785;28;20029;-70
2023/06/25 02:11:07;;;;;;;0.00;0.00;;;;;;;16.20;72.44;100439.72;5019196;28;20171;-70
2023/06/25 02:13:33;;;;;;;0.00;0.00;;;;;;;16.16;72.37;100433.19;5017370;28;20514;-70
2023/06/25 02:15:59;;;;;;;0.00;0.00;;;;;;;16.11;72.50;100419.50;5016440;28;20449;-71
2023/06/25 02:18:25;;;;;;;0.00;0.00;;;;;;;16.17;72.31;100436.78;4994237;28;20040;-70
2023/06/25 02:20:50;;;;;;;0.00;0.00;;;;;;;16.12;72.54;100429.41;5000453;28;20129;-69
2023/06/25 02:23:16;;;;;;;0.00;0.00;;;;;;;16.12;72.39;100432.19;5030136;28;20055;-70
2023/06/25 02:25:41;;;;;;;0.00;0.00;;;;;;;16.10;72.57;100428.88;5017614;28;20060;-69
2023/06/25 02:28:07;;;;;;;0.00;0.00;;;;;;;16.10;72.46;100422.56;5029148;28;20046;-70
2023/06/25 02:30:32;;;;;;;0.00;0.00;;;;;;;16.01;72.38;100420.50;5023074;28;20460;-70
2023/06/25 02:32:57;;;;;;;0.00;0.00;;;;;;;16.06;72.47;100422.34;5014333;28;20038;-70
2023/06/25 02:35:23;;;;;;;0.00;0.00;;;;;;;16.07;72.28;100412.13;5023162;28;20109;-70
2023/06/25 02:37:49;;;;;;;0.00;0.00;;;;;;;16.03;72.43;100406.38;5013302;28;20153;-70
2023/06/25 02:40:14;;;;;;;0.00;0.00;;;;;;;16.04;72.16;100413.56;4982328;28;20029;-71
2023/06/25 02:42:40;;;;;;;0.00;0.00;;;;;;;16.02;72.17;100399.25;5000293;28;20029;-70
2023/06/25 02:45:06;;;;;;;0.00;0.00;;;;;;;15.98;72.21;100398.22;5001668;28;20550;-70
2023/06/25 02:47:31;;;;;;;0.00;0.00;;;;;;;15.97;72.38;100396.59;4990204;28;20592;-69
2023/06/25 02:49:56;;;;;;;0.00;0.00;;;;;;;15.94;72.06;100397.19;5001572;28;20030;-70
2023/06/25 02:52:22;;;;;;;0.00;0.00;;;;;;;15.91;72.11;100392.28;5016611;28;20022;-70
2023/06/25 02:54:47;;;;;;;0.00;0.00;;;;;;;15.86;71.99;100391.25;4994999;28;21467;-70
2023/06/25 02:57:13;;;;;;;0.00;0.00;;;;;;;15.86;71.96;100385.72;5028691;28;20029;-69
2023/06/25 02:59:38;;;;;;;0.00;0.00;;;;;;;15.89;71.81;100384.31;5033135;28;20088;-70
2023/06/25 03:02:04;;;;;;;0.00;0.00;;;;;;;15.89;72.14;100389.81;5033261;28;20040;-69
2023/06/25 03:04:30;;;;;;;0.00;0.00;;;;;;;15.90;71.89;100379.59;4998139;28;20404;-70
2023/06/25 03:06:55;;;;;;;0.00;0.00;;;;;;;15.88;71.65;100383.47;5021560;28;20060;-70
2023/06/25 03:09:20;;;;;;;0.00;0.00;;;;;;;15.84;71.83;100376.13;5020810;28;20025;-70
2023/06/25 03:11:46;;;;;;;0.00;0.00;;;;;;;15.84;71.83;100376.13;4986023;28;20440;-69
2023/06/25 03:14:11;;;;;;;0.00;0.00;;;;;;;15.82;71.70;100379.19;5019587;28;20464;-68
2023/06/25 03:16:36;;;;;;;0.00;0.00;;;;;;;15.80;72.09;100364.88;5009433;28;20042;-70
2023/06/25 03:19:02;;;;;;;0.00;0.00;;;;;;;15.78;72.06;100360.75;4990249;28;20076;-70
2023/06/25 03:21:28;;;;;;;0.00;0.00;;;;;;;15.80;71.90;100362.13;5016656;28;20050;-69
2023/06/25 03:23:53;;;;;;;0.00;0.00;;;;;;;15.75;72.03;100351.16;5013707;28;20456;-69
2023/06/25 03:26:19;;;;;;;0.00;0.00;;;;;;;15.73;71.99;100350.66;5016666;28;20024;-70
2023/06/25 03:28:44;;;;;;;0.00;0.00;;;;;;;15.73;71.92;100347.09;5038133;28;20033;-69
2023/06/25 03:31:10;;;;;;;0.00;0.00;;;;;;;15.71;71.79;100350.13;5005289;28;20468;-70
2023/06/25 03:33:35;;;;;;;0.00;0.00;;;;;;;15.63;72.07;100337.84;5022374;28;20526;-69
2023/06/25 03:36:01;;;;;;;0.00;0.00;;;;;;;15.62;72.30;100335.41;4983106;28;20129;-69
2023/06/25 03:38:26;;;;;;;0.00;0.00;;;;;;;15.63;72.03;100337.84;5038208;28;20395;-69
2023/06/25 03:40:51;;;;;;;0.00;0.00;;;;;;;15.63;72.34;100331.53;5035276;28;20448;-70
2023/06/25 03:43:17;;;;;;;0.00;0.00;;;;;;;15.62;72.21;100327.13;5019733;28;20030;-71
2023/06/25 03:45:42;;;;;;;0.00;0.00;;;;;;;15.59;72.04;100324.97;5023800;28;20510;-70
2023/06/25 03:48:08;;;;;;;0.00;0.00;;;;;;;15.57;72.09;100321.72;5018357;28;20030;-69
2023/06/25 03:50:33;;;;;;;0.00;0.00;;;;;;;15.57;72.39;100327.22;5052861;28;20373;-70
2023/06/25 03:53:00;;;;;;;0.00;0.00;;;;;;;15.52;72.60;100323.44;5001715;28;20099;-70
2023/06/25 03:55:25;;;;;;;0.00;0.00;;;;;;;15.52;72.54;100331.72;5015401;28;20615;-71
2023/06/25 03:57:51;;;;;;;0.00;0.00;;;;;;;15.54;72.48;100331.41;4985857;28;20044;-69
2023/06/25 04:00:16;;;;;;;0.00;0.00;;;;;;;15.53;72.19;100316.78;5019716;28;20041;-71
2023/06/25 04:02:42;;;;;;;0.00;0.00;;;;;;;15.55;72.75;100324.78;5025614;28;20026;-70
2023/06/25 04:05:07;;;;;;;0.00;0.00;;;;;;;15.58;72.95;100328.84;5016293;28;20036;-72
2023/06/25 04:07:33;;;;;;;0.00;0.00;;;;;;;15.60;72.75;100323.88;5013801;28;20472;-70
2023/06/25 04:09:58;;;;;;;0.00;0.00;;;;;;;15.60;73.09;100315.59;5035035;28;20048;-71
2023/06/25 04:12:24;;;;;;;0.00;0.00;;;;;;;15.65;72.85;100318.25;5033196;28;20113;-71
2023/06/25 04:14:49;;;;;;;0.00;0.00;;;;;;;15.67;72.51;100316.03;5002515;28;20124;-70
2023/06/25 04:17:14;;;;;;;0.00;0.00;;;;;;;15.66;72.72;100303.38;5019779;28;20073;-70
2023/06/25 04:19:42;;;;;;;0.00;0.00;;;;;;;15.69;72.72;100313.78;5037205;28;20128;-69
2023/06/25 04:22:07;;;;;;;0.00;0.00;;;;;;;15.74;72.64;100310.94;5005576;28;20030;-69
2023/06/25 04:24:33;;;;;;;0.00;0.00;;;;;;;15.79;72.31;100299.84;5026686;28;20733;-69
2023/06/25 04:26:58;;;;;;;0.00;0.00;;;;;;;15.82;72.75;100301.97;5022013;28;20416;-70
2023/06/25 04:29:24;;;;;;;0.00;0.00;;;;;;;15.86;72.41;100300.25;5014426;28;20029;-70
2023/06/25 04:31:49;;;;;;;0.00;0.00;;;;;;;15.88;72.48;100298.00;5002135;28;20519;-70
2023/06/25 04:34:15;;;;;;;0.00;0.00;;;;;;;15.92;72.35;100300.16;5001843;28;20109;-70
2023/06/25 04:36:40;;;;;;;0.00;0.00;;;;;;;15.93;72.36;100296.28;5030543;28;20041;-70
2023/06/25 04:39:06;;;;;;;0.00;0.00;;;;;;;15.99;72.20;100300.56;4997548;28;20072;-69
2023/06/25 04:41:31;;;;;;;0.00;0.00;;;;;;;16.03;72.37;100301.59;5013537;28;20036;-69
2023/06/25 04:43:56;;;;;;;0.00;0.00;;;;;;;16.10;71.89;100302.00;5030481;28;20033;-70
2023/06/25 04:46:22;;;;;;;0.00;0.00;;;;;;;16.15;71.84;100296.41;5025737;28;20644;-69
2023/06/25 04:48:47;;;;;;;0.00;0.00;;;;;;;16.23;71.74;100295.66;5020792;28;20144;-70
2023/06/25 04:51:13;;;;;;;0.00;0.00;;;;;;;16.32;71.81;100293.00;5016094;28;20108;-69
2023/06/25 04:53:39;;;;;;;0.00;0.00;;;;;;;16.40;71.63;100300.56;5019316;28;20038;-69
2023/06/25 04:56:04;;;;;;;0.00;0.00;;;;;;;16.46;71.43;100295.75;5005395;28;20046;-68
2023/06/25 04:58:30;;;;;;;0.00;0.00;;;;;;;16.50;71.30;100294.03;5013900;28;20030;-69
2023/06/25 05:00:55;;;;;;;0.00;0.00;;;;;;;16.58;71.11;100286.94;5002842;28;20710;-70
2023/06/25 05:03:21;;;;;;;0.00;0.00;;;;;;;16.64;70.83;100288.47;4996342;28;20034;-71
2023/06/25 05:05:46;;;;;;;0.00;0.00;;;;;;;16.71;70.97;100277.81;4983485;28;20069;-71
2023/06/25 05:08:12;;;;;;;0.00;0.00;;;;;;;16.80;70.87;100285.38;4999513;28;20120;-69
2023/06/25 05:10:40;;;;;;;0.00;0.00;;;;;;;16.86;70.75;100284.91;5001310;28;20034;-70
2023/06/25 05:13:06;;;;;;;0.00;0.00;;;;;;;16.92;70.78;100283.72;5018015;28;20687;-70
2023/06/25 05:15:31;;;;;;;0.00;0.00;;;;;;;16.99;70.46;100293.50;5012726;28;20140;-71
2023/06/25 05:17:57;;;;;;;0.00;0.00;;;;;;;17.03;70.21;100286.25;5025586;28;20342;-71
2023/06/25 05:20:22;;;;;;;0.00;0.00;;;;;;;17.07;70.23;100284.50;5018162;28;20029;-70
2023/06/25 05:22:48;;;;;;;0.00;0.00;;;;;;;17.09;70.18;100271.97;5016754;28;20041;-70
2023/06/25 05:25:13;;;;;;;0.00;0.00;;;;;;;17.19;70.09;100268.16;5028290;28;20117;-69
2023/06/25 05:27:39;;;;;;;0.00;0.00;;;;;;;17.23;69.98;100263.63;4986165;28;20428;-71
2023/06/25 05:30:06;;;;;;;0.00;0.00;;;;;;;17.36;70.06;100266.63;5016748;28;20037;-68
2023/06/25 05:32:31;;;;;;;0.00;0.00;;;;;;;17.45;69.92;100261.97;5020110;28;20052;-70
2023/06/25 05:34:56;;;;;;;0.00;0.00;;;;;;;17.56;69.34;100262.53;5016618;28;20075;-70
2023/06/25 05:37:22;;;;;;;0.00;0.00;;;;;;;17.72;69.36;100271.22;5028935;28;20069;-70
2023/06/25 05:39:47;;;;;;;0.00;0.00;;;;;;;17.79;68.98;100260.53;5034239;28;20049;-70
2023/06/25 05:42:13;;;;;;;0.00;0.00;;;;;;;17.90;68.75;100261.91;4983316;28;20038;-70
2023/06/25 05:44:38;;;;;;;0.00;0.00;;;;;;;17.99;68.31;100258.34;5052144;28;20033;-69
2023/06/25 05:47:04;;;;;;;0.00;0.00;;;;;;;18.12;68.79;100269.31;5002920;28;20476;-69
2023/06/25 05:49:30;;;;;;;0.00;0.00;;;;;;;18.23;68.19;100257.94;5032982;28;20045;-70
2023/06/25 05:51:55;;;;;;;0.00;0.00;;;;;;;18.63;68.10;100255.06;5017388;28;20399;-70
2023/06/25 05:54:21;;;;;;;0.00;0.00;;;;;;;19.22;66.67;100254.59;5027791;28;20644;-70
2023/06/25 05:56:46;;;;;;;0.00;0.00;;;;;;;19.52;65.52;100254.69;5022871;28;20053;-70
2023/06/25 05:59:12;;;;;;;0.00;0.00;;;;;;;19.49;65.67;100258.13;5024461;28;20769;-70
2023/06/25 06:01:38;;;;;;;0.00;0.00;;;;;;;19.43;65.57;100248.34;5016937;28;20049;-71
2023/06/25 06:04:05;;;;;;;0.00;0.00;;;;;;;19.39;65.93;100248.22;5014548;28;20037;-70
2023/06/25 06:06:30;;;;;;;0.00;0.00;;;;;;;19.36;65.59;100244.13;5023594;28;20033;-71
2023/06/25 06:08:56;;;;;;;0.00;0.00;;;;;;;19.39;65.76;100255.69;5020786;28;20040;-69
2023/06/25 06:11:22;;;;;;;0.00;0.00;;;;;;;19.33;65.87;100249.50;5000547;28;20180;-70
2023/06/25 06:13:48;;;;;;;0.00;0.00;;;;;;;19.30;66.07;100245.47;4997641;28;20041;-70
2023/06/25 06:16:13;;;;;;;0.00;0.00;;;;;;;19.34;66.42;100229.78;5016130;28;20049;-70
2023/06/25 06:18:39;;;;;;;0.00;0.00;;;;;;;19.42;65.78;100246.72;5036677;28;20036;-69
2023/06/25 06:21:04;;;;;;;0.00;0.00;;;;;;;19.43;66.53;100232.53;4998165;28;20064;-71
2023/06/25 06:23:33;;;;;;;0.00;0.00;;;;;;;19.46;66.27;100247.69;4983168;28;20053;-70
2023/06/25 06:25:58;;;;;;;0.00;0.00;;;;;;;19.44;66.81;100244.44;5022788;28;20065;-69
2023/06/25 06:28:24;;;;;;;0.00;0.00;;;;;;;19.43;67.09;100240.03;5029005;28;20076;-69
2023/06/25 06:30:49;;;;;;;0.00;0.00;;;;;;;19.59;66.90;100240.31;5000935;28;20185;-68
2023/06/25 06:33:15;;;;;;;0.00;0.00;;;;;;;19.71;66.88;100232.94;5021312;28;20443;-70
2023/06/25 06:35:40;;;;;;;0.00;0.00;;;;;;;19.79;66.88;100228.50;5013598;28;20116;-70
2023/06/25 06:38:05;;;;;;;0.00;0.00;;;;;;;19.92;66.51;100218.34;5002083;28;20037;-71
2023/06/25 06:40:31;;;;;;;0.00;0.00;;;;;;;19.99;66.55;100221.41;5005961;28;20029;-69
2023/06/25 06:42:56;;;;;;;0.00;0.00;;;;;;;20.07;66.70;100227.25;4989464;28;20034;-70
2023/06/25 06:45:22;;;;;;;0.00;0.00;;;;;;;20.04;66.96;100207.31;4996827;28;20034;-68
2023/06/25 06:47:49;;;;;;;0.00;0.00;;;;;;;20.13;66.71;100210.03;5002496;28;20053;-69
2023/06/25 06:50:17;;;;;;;0.00;0.00;;;;;;;20.25;66.51;100208.50;4992064;28;20492;-69
2023/06/25 06:52:45;;;;;;;0.00;0.00;;;;;;;20.24;66.38;100210.50;5029551;28;20479;-70
2023/06/25 06:55:11;;;;;;;0.00;0.00;;;;;;;20.30;66.51;100208.31;5024019;28;20041;-73
2023/06/25 06:57:39;;;;;;;0.00;0.00;;;;;;;20.45;66.35;100209.69;5005774;28;20034;-71
2023/06/25 07:00:05;;;;;;;0.00;0.00;;;;;;;20.62;65.89;100192.88;5038241;28;20039;-73
2023/06/25 07:02:30;;;;;;;0.00;0.00;;;;;;;20.77;65.39;100193.44;5020266;28;20021;-69
2023/06/25 07:04:56;;;;;;;0.00;0.00;;;;;;;20.95;65.20;100196.88;5005966;28;20675;-70
2023/06/25 07:07:21;;;;;;;0.00;0.00;;;;;;;21.07;65.15;100197.72;5025621;28;20391;-69
2023/06/25 07:09:51;;;;;;;0.00;0.00;;;;;;;21.19;64.81;100198.94;4988744;28;20039;-70
2023/06/25 07:12:18;;;;;;;0.00;0.00;;;;;;;21.12;64.91;100204.22;5024723;28;20021;-69
2023/06/25 07:14:43;;;;;;;0.00;0.00;;;;;;;21.00;64.93;100197.47;5036758;28;20049;-71
2023/06/25 07:17:11;;;;;;;0.00;0.00;;;;;;;21.01;65.23;100201.06;5027934;28;20191;-74
2023/06/25 07:19:37;;;;;;;0.00;0.00;;;;;;;21.02;65.49;100194.34;5039531;28;20029;-70
2023/06/25 07:22:02;;;;;;;0.00;0.00;;;;;;;21.13;65.28;100205.84;5027546;28;20357;-68
2023/06/25 07:24:27;;;;;;;0.00;0.00;;;;;;;21.20;65.36;100194.97;4995945;28;20029;-70
2023/06/25 07:26:55;;;;;;;0.00;0.00;;;;;;;21.23;65.67;100199.84;4984392;28;20400;-71
2023/06/25 07:29:21;;;;;;;0.00;0.00;;;;;;;21.40;65.60;100204.41;5008988;28;20022;-69
2023/06/25 07:31:46;;;;;;;0.00;0.00;;;;;;;21.43;64.99;100179.47;5005928;28;20037;-69
2023/06/25 07:34:12;;;;;;;0.00;0.00;;;;;;;21.59;64.55;100181.63;4987936;28;20028;-69
2023/06/25 07:36:41;;;;;;;0.00;0.00;;;;;;;21.71;64.35;100197.50;4995539;28;20127;-69
2023/06/25 07:39:07;;;;;;;0.00;0.00;;;;;;;21.72;64.98;100194.38;4985469;28;20128;-70
2023/06/25 07:41:33;;;;;;;0.00;0.00;;;;;;;21.79;64.58;100180.72;5009604;28;20116;-70
2023/06/25 07:43:59;;;;;;;0.00;0.00;;;;;;;21.84;64.39;100173.28;4978094;28;20037;-71
2023/06/25 07:46:25;;;;;;;0.00;0.00;;;;;;;22.02;63.98;100174.69;5021596;28;20030;-70
2023/06/25 07:48:52;;;;;;;0.00;0.00;;;;;;;22.23;63.72;100191.22;4986004;28;20373;-71
2023/06/25 07:51:18;;;;;;;0.00;0.00;;;;;;;22.20;62.89;100163.28;5007442;28;20036;-70
2023/06/25 07:53:44;;;;;;;0.00;0.00;;;;;;;22.24;62.54;100176.13;5008650;28;20037;-70
2023/06/25 07:56:10;;;;;;;0.00;0.00;;;;;;;22.45;62.57;100169.63;5002519;28;20033;-71
2023/06/25 07:58:36;;;;;;;0.00;0.00;;;;;;;22.62;62.70;100191.63;4972365;28;20052;-70
2023/06/25 08:01:02;;;;;;;0.00;0.00;;;;;;;22.71;61.44;100171.97;4985655;28;20068;-68
2023/06/25 08:03:28;;;;;;;0.00;0.00;;;;;;;22.88;61.45;100175.59;4994408;28;20034;-69
2023/06/25 08:06:02;;;;;;;0.00;0.00;;;;;;;22.94;61.31;100179.75;4977659;28;20030;-70
2023/06/25 08:08:28;;;;;;;0.00;0.00;;;;;;;22.98;61.00;100181.50;4983824;28;20038;-70
2023/06/25 08:10:54;;;;;;;0.00;0.00;;;;;;;23.07;59.98;100156.22;4999579;28;20151;-70
2023/06/25 08:13:21;;;;;;;0.00;0.00;;;;;;;23.22;60.58;100157.44;4985999;28;20053;-71
2023/06/25 08:15:47;;;;;;;0.00;0.00;;;;;;;23.51;60.13;100153.41;4967587;28;20115;-70
2023/06/25 08:18:13;;;;;;;0.00;0.00;;;;;;;23.91;58.84;100164.75;5034130;28;20095;-70
2023/06/25 08:20:43;;;;;;;0.00;0.00;;;;;;;24.07;57.98;100145.97;5005416;28;20033;-70
2023/06/25 08:23:09;;;;;;;0.00;0.00;;;;;;;24.23;57.08;100155.09;4996764;28;20065;-72
2023/06/25 08:25:35;;;;;;;0.00;0.00;;;;;;;24.44;57.23;100148.34;5005758;28;20034;-70
2023/06/25 08:28:01;;;;;;;0.00;0.00;;;;;;;24.77;56.52;100144.25;5005587;28;20033;-70
2023/06/25 08:30:27;;;;;;;0.00;0.00;;;;;;;25.13;55.83;100149.69;5012820;28;20090;-70
2023/06/25 08:32:53;;;;;;;0.00;0.00;;;;;;;25.37;54.82;100137.38;5005298;28;20118;-70
2023/06/25 08:35:19;;;;;;;0.00;0.00;;;;;;;25.56;53.54;100145.69;5037205;28;20472;-71
2023/06/25 08:37:44;;;;;;;0.00;0.00;;;;;;;25.64;51.37;100140.19;5036560;28;20034;-72
2023/06/25 08:40:11;;;;;;;0.00;0.00;;;;;;;25.67;51.70;100120.66;5008715;28;20364;-71
2023/06/25 08:42:41;;;;;;;0.00;0.00;;;;;;;25.87;51.33;100132.53;5002802;28;20025;-70
2023/06/25 08:45:08;;;;;;;0.00;0.00;;;;;;;25.90;51.19;100142.19;5020676;28;20025;-71
2023/06/25 08:47:39;;;;;;;0.00;0.00;;;;;;;25.84;51.67;100138.91;4983933;28;20168;-70
2023/06/25 08:50:06;;;;;;;0.00;0.00;;;;;;;25.80;50.83;100140.84;5008011;28;20057;-69
2023/06/25 08:52:33;;;;;;;0.00;0.00;;;;;;;25.78;50.78;100132.03;4983817;28;20029;-70
2023/06/25 08:54:59;;;;;;;0.00;0.00;;;;;;;25.77;50.24;100147.19;5007602;28;20037;-69
2023/06/25 08:57:25;;;;;;;0.00;0.00;;;;;;;25.67;50.33;100145.03;4972089;28;20030;-71
2023/06/25 08:59:51;;;;;;;0.00;0.00;;;;;;;25.81;50.29;100134.06;5020676;28;20030;-71
2023/06/25 09:02:18;;;;;;;0.00;0.00;;;;;;;25.88;50.52;100131.38;4990921;28;20029;-71
2023/06/25 09:04:46;;;;;;;0.00;0.00;;;;;;;26.09;50.33;100138.50;4996926;28;20041;-70
2023/06/25 09:07:19;;;;;;;0.00;0.00;;;;;;;26.10;49.71;100120.50;5039589;28;20025;-69
2023/06/25 09:09:54;;;;;;;0.00;0.00;;;;;;;26.23;49.30;100121.09;5018047;28;20029;-68
2023/06/25 09:12:24;;;;;;;0.00;0.00;;;;;;;26.31;48.62;100133.97;4985157;28;20029;-69
2023/06/25 09:14:50;;;;;;;0.00;0.00;;;;;;;26.30;48.58;100129.59;5031033;28;20091;-68
2023/06/25 09:17:25;;;;;;;0.00;0.00;;;;;;;26.32;48.32;100132.00;5008102;28;20050;-70
2023/06/25 09:20:37;;;;;;;;;;;;;;;;;;;;;
2023/06/25 09:23:10;;;;;;;0.00;0.00;;;;;;;26.83;47.55;100103.38;5021179;28;20025;-78
2023/06/25 09:25:59;;;;;;;0.00;0.00;;;;;;;26.74;47.19;100100.88;5008957;28;20017;-78
2023/06/25 09:32:12;;;;;;;;;;;;;;;;;;;;;
2023/06/25 09:35:21;;;;;;;0.00;0.00;;;;;;;27.16;46.14;100143.78;4978221;28;20030;-79
2023/06/25 09:38:58;;;;;;;;;;;;;;;;;;;;;
2023/06/25 09:41:52;;;;;;;;;;;;;;;;;;;;;
2023/06/25 09:44:30;;;;;;;0.00;0.00;;;;;;;27.59;44.39;100121.72;4997908;28;20125;-77
2023/06/25 09:47:07;;;;;;;0.00;0.00;;;;;;;28.07;44.37;100134.09;5014738;28;20045;-76
2023/06/25 09:49:33;;;;;;;0.00;0.00;;;;;;;28.03;43.48;100112.38;5018150;28;20532;-76
2023/06/25 09:52:15;;;;;;;0.00;0.00;;;;;;;28.41;43.78;100120.59;5016312;28;20117;-75
2023/06/25 09:55:06;;;;;;;0.00;0.00;;;;;;;28.53;43.50;100088.50;5017123;28;20535;-76
2023/06/25 09:58:25;;;;;;;;;;;;;;;;;;;;;
2023/06/25 10:01:18;;;;;;;0.00;0.00;;;;;;;28.46;41.24;100110.97;4973281;28;20042;-76
2023/06/25 10:08:03;;;;;;;0.00;0.00;;;;;;;27.95;42.73;100099.47;4956698;28;20122;-77
2023/06/25 10:10:57;;;;;;;;;;;;;;;;;;;;;
2023/06/25 10:13:40;;;;;;;0.00;0.00;;;;;;;28.68;41.64;100064.88;5019767;28;20024;-77
2023/06/25 10:16:27;;;;;;;;;;;;;;;;;;;;;
2023/06/25 10:22:58;;;;;;;;;;;;;;;;;;;;;
2023/06/25 10:25:38;;;;;;;;;;;;;;;;;;;;;
2023/06/25 10:28:14;;;;;;;0.00;0.00;;;;;;;31.94;33.49;100084.88;5006092;28;20034;-75
2023/06/25 10:30:48;;;;;;;0.00;0.00;;;;;;;30.02;36.29;100079.72;5019723;28;20526;-73
2023/06/25 10:33:17;;;;;;;;;;;;;;;29.00;38.29;100095.06;5026471;28;20032;-75
2023/06/25 10:36:05;;;;;;;0.00;0.00;;;;;;;28.65;39.65;100074.13;5052528;28;19913;-75
2023/06/25 10:38:30;;;;;;;0.00;0.00;;;;;;;28.41;39.95;100083.25;5030917;28;20020;-74
2023/06/25 10:40:56;;;;;;;0.00;0.00;;;;;;;28.14;40.42;100080.72;5017107;28;20033;-75
2023/06/25 10:43:21;;;;;;;0.00;0.00;;;;;;;28.04;41.90;100063.44;5007044;28;20026;-73
2023/06/25 10:45:52;;;;;;;0.00;0.00;;;;;;;28.32;41.62;100061.94;5016044;28;20037;-74
2023/06/25 10:48:18;;;;;;;0.00;0.00;;;;;;;28.39;41.99;100050.72;5045166;28;20029;-75
2023/06/25 10:50:43;;;;;;;0.00;0.00;;;;;;;28.41;41.70;100041.88;5019456;28;20026;-73
2023/06/25 10:53:11;;;;;;;0.00;0.00;;;;;;;28.62;41.89;100052.41;5012452;28;20049;-74
2023/06/25 10:55:38;;;;;;;0.00;0.00;;;;;;;28.88;40.93;100031.56;5023156;28;20029;-73
2023/06/25 10:58:06;;;;;;;0.00;0.00;;;;;;;29.35;41.29;100047.63;5027221;28;20053;-73
2023/06/25 11:00:32;;;;;;;0.00;0.00;;;;;;;29.90;39.57;100037.88;5016306;28;20034;-72
2023/06/25 11:02:58;;;;;;;0.00;0.00;;;;;;;30.80;37.99;100043.88;5019589;28;20049;-73
2023/06/25 11:05:41;;;;;;;0.00;0.00;;;;;;;31.28;36.37;100038.69;5010630;28;20658;-75
2023/06/25 11:08:10;;;;;;;0.00;0.00;;;;;;;32.05;35.18;100051.59;5020390;28;20041;-73
2023/06/25 11:10:40;;;;;;;0.00;0.00;;;;;;;32.77;33.96;100039.34;5013471;28;20532;-75
2023/06/25 11:13:25;;;;;;;0.00;0.00;;;;;;;34.44;32.43;100037.88;5024554;28;20041;-73
2023/06/25 11:15:55;;;;;;;0.00;0.00;;;;;;;36.06;29.48;100025.22;5014973;28;20120;-75
2023/06/25 11:18:24;;;;;;;0.00;0.00;;;;;;;36.95;27.75;100035.06;5017546;28;20061;-73
2023/06/25 11:20:49;;;;;;;0.00;0.00;;;;;;;37.94;27.16;100038.97;5007895;28;20021;-72
2023/06/25 11:23:15;;;;;;;0.00;0.00;;;;;;;39.26;25.71;100032.13;5016953;28;20045;-75
2023/06/25 11:25:41;;;;;;;0.00;0.00;;;;;;;40.18;23.92;100036.22;5004478;28;20037;-73
2023/06/25 11:28:12;;;;;;;0.00;0.00;;;;;;;40.47;23.59;100025.00;5015106;28;20476;-73
2023/06/25 11:30:38;;;;;;;0.00;0.00;;;;;;;41.61;23.13;100045.50;5017522;28;20120;-72
2023/06/25 11:33:15;;;;;;;0.00;0.00;;;;;;;42.31;21.52;100026.16;5026493;28;20125;-74
2023/06/25 11:35:41;;;;;;;0.00;0.00;;;;;;;43.43;20.79;100026.22;5019729;28;20053;-73
2023/06/25 11:38:07;;;;;;;0.00;0.00;;;;;;;43.67;19.05;100019.41;5045831;28;20776;-74
2023/06/25 11:40:36;;;;;;;0.00;0.00;;;;;;;43.05;19.49;100030.94;5013209;28;20030;-73
2023/06/25 11:43:02;;;;;;;0.00;0.00;;;;;;;43.15;19.66;100032.38;5019153;28;20460;-74
2023/06/25 11:45:40;;;;;;;0.00;0.00;;;;;;;43.02;18.88;100040.56;5019386;28;20053;-73
2023/06/25 11:48:12;;;;;;;0.00;0.00;;;;;;;43.59;19.01;100033.44;5019357;28;20048;-73
2023/06/25 11:50:37;;;;;;;0.00;0.00;;;;;;;43.89;17.56;100034.06;5022954;28;20431;-75
2023/06/25 11:53:02;;;;;;;0.00;0.00;;;;;;;43.05;17.64;100030.94;5019838;28;20037;-74